Time;durP1;ratioP1;P1;durP2;ratioP2;P2;SDS_P1;SDS_P2;PMS_P1;PMS_P2;Temp;Humidity;BMP_temperature;BMP_pressure;BME280_temperature;BME280_humidity;BME280_pressure;Samples;Min_cycle;Max_cycle;Signal;HPM_P1;HPM_P2
2022/04/30 00:01:17;;;;;;;7.07;3.92;;;;;;;6.26;78.01;102799.34;5089233;28;20610;-70
2022/04/30 00:03:42;;;;;;;8.77;3.83;;;;;;;6.21;78.75;102800.63;5082623;28;20028;-70
2022/04/30 00:06:08;;;;;;;7.15;3.67;;;;;;;6.17;78.14;102797.41;5069883;28;20103;-70
2022/04/30 00:08:33;;;;;;;8.57;4.15;;;;;;;6.15;78.82;102799.31;5075362;28;20115;-70
2022/04/30 00:10:59;;;;;;;7.97;3.67;;;;;;;6.11;78.90;102795.22;5089145;28;20387;-70
2022/04/30 00:13:24;;;;;;;6.18;2.97;;;;;;;6.07;78.85;102797.25;5089065;28;20032;-70
2022/04/30 00:15:49;;;;;;;10.95;3.55;;;;;;;6.06;79.05;102795.59;5088978;28;20360;-70
2022/04/30 00:18:15;;;;;;;8.23;3.45;;;;;;;6.04;79.31;102794.84;5088929;28;20452;-71
2022/04/30 00:20:45;;;;;;;8.75;3.85;;;;;;;6.07;79.35;102799.91;5089090;28;20032;-70
2022/04/30 00:23:19;;;;;;;8.70;3.63;;;;;;;6.09;79.31;102794.50;5089018;28;20060;-70
2022/04/30 00:25:48;;;;;;;7.18;3.70;;;;;;;6.11;79.80;102796.06;5088148;28;20690;-70
2022/04/30 00:28:14;;;;;;;8.77;3.83;;;;;;;6.10;79.39;102797.03;5089136;28;20035;-70
2022/04/30 00:30:41;;;;;;;7.25;3.88;;;;;;;6.04;79.61;102789.56;5087557;28;20976;-70
2022/04/30 00:33:09;;;;;;;8.63;3.17;;;;;;;6.08;79.17;102796.31;5089048;28;20023;-70
2022/04/30 00:35:36;;;;;;;6.80;3.92;;;;;;;6.06;79.34;102800.03;5089019;28;20032;-70
2022/04/30 00:38:01;;;;;;;7.80;3.80;;;;;;;6.01;79.50;102795.09;5081183;28;20139;-70
2022/04/30 00:40:27;;;;;;;5.93;3.20;;;;;;;5.96;79.48;102801.72;5085843;28;20114;-70
2022/04/30 00:42:52;;;;;;;8.68;3.88;;;;;;;5.93;79.89;102794.81;5088765;28;20119;-70
2022/04/30 00:45:17;;;;;;;9.35;4.20;;;;;;;5.92;79.56;102790.47;5088738;28;20131;-70
2022/04/30 00:47:43;;;;;;;11.57;4.20;;;;;;;5.90;79.87;102787.09;5088290;28;20028;-70
2022/04/30 00:50:14;;;;;;;8.52;4.38;;;;;;;5.82;80.14;102778.91;5090584;28;20042;-70
2022/04/30 00:52:41;;;;;;;12.95;4.72;;;;;;;5.80;80.12;102780.81;5092822;28;20067;-70
2022/04/30 00:55:07;;;;;;;11.02;5.68;;;;;;;5.74;80.55;102771.56;5092933;28;20032;-70
2022/04/30 00:57:36;;;;;;;15.32;6.10;;;;;;;5.67;80.43;102781.75;5093098;28;20054;-70
2022/04/30 01:00:04;;;;;;;14.25;6.47;;;;;;;5.63;80.79;102780.31;5092487;28;20074;-70
2022/04/30 01:02:32;;;;;;;11.98;5.22;;;;;;;5.62;81.04;102783.06;5092189;28;20039;-70
2022/04/30 01:04:58;;;;;;;10.30;4.72;;;;;;;5.55;81.15;102772.09;5092675;28;20024;-70
2022/04/30 01:07:25;;;;;;;7.32;3.70;;;;;;;5.58;81.10;102773.66;5091376;28;20073;-70
2022/04/30 01:09:53;;;;;;;6.68;3.33;;;;;;;5.51;81.59;102769.81;5091377;28;20038;-70
2022/04/30 01:12:20;;;;;;;6.70;3.78;;;;;;;5.56;81.59;102770.31;5092831;28;20467;-70
2022/04/30 01:14:46;;;;;;;7.85;3.60;;;;;;;5.53;81.49;102771.38;5092474;28;20042;-70
2022/04/30 01:17:12;;;;;;;8.73;3.83;;;;;;;5.51;81.85;102769.81;5092519;28;20047;-70
2022/04/30 01:19:43;;;;;;;6.00;2.83;;;;;;;5.47;81.85;102764.72;5092248;28;20475;-70
2022/04/30 01:22:30;;;;;;;7.63;3.15;;;;;;;5.49;81.84;102773.41;5092449;28;20040;-70
2022/04/30 01:25:00;;;;;;;8.27;2.75;;;;;;;5.42;81.85;102760.75;5092516;28;20032;-70
2022/04/30 01:27:27;;;;;;;9.23;3.92;;;;;;;5.33;82.04;102751.72;5092278;28;20028;-70
2022/04/30 01:29:57;;;;;;;6.72;3.30;;;;;;;5.37;82.53;102760.25;5072977;28;20039;-70
2022/04/30 01:38:05;;;;;;;8.30;3.53;;;;;;;5.31;83.05;102760.72;5092407;28;20391;-70
2022/04/30 01:40:31;;;;;;;7.63;3.55;;;;;;;5.22;82.93;102759.63;5091853;28;20024;-70
2022/04/30 01:43:00;;;;;;;8.55;3.78;;;;;;;5.21;83.28;102757.91;5091925;28;20090;-70
2022/04/30 01:45:27;;;;;;;7.72;2.80;;;;;;;5.21;83.35;102749.97;5091949;28;20020;-70
2022/04/30 01:47:54;;;;;;;13.27;4.10;;;;;;;5.18;83.68;102750.22;5091747;28;20028;-70
2022/04/30 01:50:19;;;;;;;7.55;3.80;;;;;;;5.21;83.99;102763.19;5090149;28;20030;-70
2022/04/30 01:52:45;;;;;;;11.07;3.33;;;;;;;5.09;83.31;102746.47;5090819;28;20048;-70
2022/04/30 01:55:10;;;;;;;6.88;3.10;;;;;;;5.13;84.29;102755.00;5090193;28;20032;-70
2022/04/30 01:57:39;;;;;;;10.18;3.67;;;;;;;5.01;84.44;102747.03;5090278;28;20062;-70
2022/04/30 02:00:06;;;;;;;11.75;3.55;;;;;;;5.01;84.47;102746.19;5083053;28;20038;-70
2022/04/30 02:02:36;;;;;;;9.43;4.00;;;;;;;4.87;84.25;102730.47;5078858;28;20036;-69
2022/04/30 02:05:05;;;;;;;8.25;3.78;;;;;;;4.95;84.57;102751.91;5089523;28;20056;-69
2022/04/30 02:07:33;;;;;;;9.70;4.07;;;;;;;4.93;84.88;102751.19;5073109;28;20032;-70
2022/04/30 02:10:00;;;;;;;11.18;4.75;;;;;;;4.94;85.32;102740.50;5090310;28;20069;-70
2022/04/30 02:12:29;;;;;;;7.80;3.50;;;;;;;4.94;85.20;102747.59;5090196;28;20542;-70
2022/04/30 02:14:55;;;;;;;10.75;3.90;;;;;;;4.94;85.42;102739.66;5090366;28;20031;-70
2022/04/30 02:17:22;;;;;;;11.52;4.65;;;;;;;4.95;85.30;102738.69;5089947;28;20047;-70
2022/04/30 02:22:37;;;;;;;9.82;3.85;;;;;;;4.91;85.30;102734.59;5090210;28;20970;-70
2022/04/30 02:25:09;;;;;;;8.30;3.90;;;;;;;4.89;85.49;102742.63;5090081;28;20131;-70
2022/04/30 02:27:36;;;;;;;7.80;3.55;;;;;;;4.88;85.42;102738.31;5089898;28;20042;-70
2022/04/30 02:30:04;;;;;;;8.90;3.33;;;;;;;4.87;85.67;102733.13;5089974;28;20106;-70
2022/04/30 02:32:41;;;;;;;7.75;3.60;;;;;;;4.80;85.72;102736.22;5089974;28;20038;-70
2022/04/30 02:35:09;;;;;;;8.63;3.47;;;;;;;4.78;85.94;102732.00;5089907;28;20027;-70
2022/04/30 02:37:35;;;;;;;13.82;3.72;;;;;;;4.79;85.96;102731.91;5089878;28;20023;-70
2022/04/30 02:40:02;;;;;;;10.07;4.00;;;;;;;4.76;85.79;102736.56;5089987;28;20110;-70
2022/04/30 02:42:27;;;;;;;8.00;3.97;;;;;;;4.76;85.80;102729.47;5089693;28;20119;-70
2022/04/30 02:44:53;;;;;;;9.30;3.90;;;;;;;4.75;85.83;102745.44;5089944;28;20111;-70
2022/04/30 02:47:18;;;;;;;9.55;4.03;;;;;;;4.73;86.13;102734.13;5089784;28;20047;-70
2022/04/30 02:49:44;;;;;;;10.15;4.22;;;;;;;4.65;86.20;102720.63;5089701;28;20032;-70
2022/04/30 02:52:10;;;;;;;12.15;4.45;;;;;;;4.68;86.08;102728.34;5073897;28;1156085;-70
2022/04/30 02:54:35;;;;;;;10.93;3.95;;;;;;;4.65;86.47;102724.13;5090886;28;20067;-70
2022/04/30 02:57:01;;;;;;;9.98;4.63;;;;;;;4.65;86.49;102725.94;5089125;28;20036;-70
2022/04/30 03:02:11;;;;;;;9.98;4.20;;;;;;;4.59;86.92;102714.84;5090664;28;20157;-70
2022/04/30 03:04:36;;;;;;;8.88;3.90;;;;;;;4.58;86.66;102715.81;5090553;28;21081;-70
2022/04/30 03:07:02;;;;;;;9.43;4.35;;;;;;;4.56;87.09;102716.88;5071172;28;20086;-70
2022/04/30 03:09:27;;;;;;;11.18;4.38;;;;;;;4.50;87.01;102709.38;5070942;28;20119;-70
2022/04/30 03:11:52;;;;;;;12.35;4.55;;;;;;;4.51;87.36;102717.19;5070039;28;20107;-70
2022/04/30 03:14:18;;;;;;;14.57;6.45;;;;;;;4.43;87.23;102705.47;5070948;28;20119;-70
2022/04/30 03:22:12;;;;;;;14.25;5.88;;;;;;;4.45;87.52;102724.72;5090015;28;20104;-70
2022/04/30 03:24:38;;;;;;;10.35;4.43;;;;;;;4.44;87.93;102715.09;5090106;28;20961;-70
2022/04/30 03:27:03;;;;;;;13.48;5.07;;;;;;;4.42;88.08;102720.50;5082619;28;20031;-70
2022/04/30 03:29:29;;;;;;;12.35;4.25;;;;;;;4.42;87.98;102722.28;5075501;28;20052;-69
2022/04/30 03:31:56;;;;;;;12.98;4.53;;;;;;;4.41;88.20;102721.47;5070497;28;20033;-70
2022/04/30 03:34:21;;;;;;;11.63;4.65;;;;;;;4.38;88.47;102717.25;5070540;28;20024;-70
2022/04/30 03:36:47;;;;;;;15.88;6.05;;;;;;;4.34;88.48;102699.06;5070524;28;20109;-70
2022/04/30 03:39:13;;;;;;;12.77;4.60;;;;;;;4.34;88.30;102702.53;5070394;28;20044;-70
2022/04/30 03:41:38;;;;;;;11.20;4.32;;;;;;;4.33;88.34;102692.09;5089478;28;20032;-70
2022/04/30 03:44:04;;;;;;;13.25;4.88;;;;;;;4.38;88.13;102700.56;5074367;28;20047;-70
2022/04/30 03:46:30;;;;;;;13.48;4.82;;;;;;;4.38;88.66;102714.59;5070294;28;20036;-70
2022/04/30 03:48:56;;;;;;;12.55;5.53;;;;;;;4.37;88.41;102704.97;5089705;28;20043;-70
2022/04/30 03:51:22;;;;;;;12.65;6.60;;;;;;;4.34;88.88;102697.25;5070837;28;20075;-70
2022/04/30 03:53:49;;;;;;;10.30;4.93;;;;;;;4.32;89.01;102706.25;5089098;28;20059;-70
2022/04/30 03:56:17;;;;;;;15.68;5.38;;;;;;;4.30;88.72;102700.25;5089437;28;20383;-70
2022/04/30 03:58:43;;;;;;;13.55;5.70;;;;;;;4.26;89.26;102701.41;5089395;28;20020;-70
2022/04/30 04:01:08;;;;;;;13.00;4.82;;;;;;;4.26;89.15;102707.53;5089273;28;20388;-70
2022/04/30 04:03:36;;;;;;;18.27;8.23;;;;;;;4.21;89.16;102691.16;5089259;28;20106;-70
2022/04/30 04:06:01;;;;;;;13.85;6.00;;;;;;;4.17;89.36;102693.19;5070290;28;20043;-70
2022/04/30 04:08:27;;;;;;;17.80;5.53;;;;;;;4.21;89.38;102703.53;5069983;28;20395;-71
2022/04/30 04:10:53;;;;;;;12.10;5.88;;;;;;;4.17;89.05;102698.47;5069979;28;20063;-70
2022/04/30 04:19:05;;;;;;;14.43;7.13;;;;;;;4.16;89.39;102702.06;4987841;28;20056;-70
2022/04/30 04:21:31;;;;;;;15.80;6.05;;;;;;;4.08;89.72;102687.72;5035440;28;20392;-70
2022/04/30 04:26:40;;;;;;;13.48;5.03;;;;;;;4.07;89.49;102700.09;5070053;28;20145;-70
2022/04/30 04:29:05;;;;;;;14.07;6.22;;;;;;;4.02;89.47;102686.38;5068259;28;20102;-70
2022/04/30 04:31:31;;;;;;;16.23;5.15;;;;;;;4.16;89.44;102711.78;5069875;28;20387;-70
2022/04/30 04:33:56;;;;;;;11.75;5.60;;;;;;;4.10;89.77;102702.50;5069743;28;20396;-70
2022/04/30 04:36:21;;;;;;;15.43;6.93;;;;;;;4.18;90.16;102705.44;5069571;28;20380;-70
2022/04/30 04:38:47;;;;;;;14.55;5.88;;;;;;;4.24;89.96;102712.06;5069728;28;20476;-70
2022/04/30 04:41:12;;;;;;;15.23;5.88;;;;;;;4.25;89.92;102708.50;5068121;28;20043;-70
2022/04/30 04:43:38;;;;;;;14.32;6.05;;;;;;;4.30;89.82;102716.94;5069548;28;20067;-70
2022/04/30 04:46:03;;;;;;;13.80;5.50;;;;;;;4.36;89.68;102718.31;5069551;28;20480;-70
2022/04/30 04:48:30;;;;;;;14.30;5.65;;;;;;;4.45;89.77;102722.06;5077349;28;20071;-69
2022/04/30 04:50:55;;;;;;;12.38;5.90;;;;;;;4.67;89.32;102724.84;5069749;28;20135;-70
2022/04/30 04:53:21;;;;;;;14.13;6.53;;;;;;;4.89;88.69;102721.47;5069407;28;20128;-70
2022/04/30 04:55:46;;;;;;;16.10;7.57;;;;;;;4.98;87.76;102712.88;5069466;28;20107;-70
2022/04/30 04:58:12;;;;;;;20.65;7.30;;;;;;;5.07;87.65;102729.84;5069437;28;20025;-70
2022/04/30 05:00:37;;;;;;;14.18;6.43;;;;;;;5.18;87.99;102735.16;5088756;28;20052;-70
2022/04/30 05:03:03;;;;;;;15.02;6.57;;;;;;;5.51;87.82;102732.75;5088626;28;20491;-70
2022/04/30 05:05:28;;;;;;;16.83;6.25;;;;;;;5.84;86.23;102730.19;5088527;28;20855;-70
2022/04/30 05:07:54;;;;;;;16.20;6.18;;;;;;;6.07;85.28;102715.13;5088674;28;20032;-70
2022/04/30 05:10:19;;;;;;;13.70;5.78;;;;;;;6.54;84.20;102737.00;5088722;28;20042;-70
2022/04/30 05:12:46;;;;;;;13.93;6.55;;;;;;;6.94;82.21;102747.06;5088444;28;20072;-70
2022/04/30 05:15:12;;;;;;;13.18;5.85;;;;;;;7.07;81.44;102735.41;5088593;28;20029;-70
2022/04/30 05:17:37;;;;;;;17.95;6.35;;;;;;;7.14;80.92;102745.38;5088535;28;20070;-70
2022/04/30 05:20:05;;;;;;;15.32;6.78;;;;;;;7.12;81.09;102734.06;5088527;28;20952;-70
2022/04/30 05:22:30;;;;;;;16.85;7.03;;;;;;;7.34;81.00;102738.44;5088340;28;20032;-70
2022/04/30 05:24:56;;;;;;;14.77;6.47;;;;;;;7.92;79.41;102740.59;5075526;28;20059;-70
2022/04/30 05:27:21;;;;;;;12.90;5.90;;;;;;;8.25;77.59;102743.94;5068956;28;20028;-70
2022/04/30 05:29:47;;;;;;;18.45;6.78;;;;;;;8.45;76.40;102742.22;5069104;28;20044;-70
2022/04/30 05:32:12;;;;;;;14.27;6.70;;;;;;;8.51;76.22;102744.31;5069082;28;20086;-70
2022/04/30 05:34:38;;;;;;;21.73;8.35;;;;;;;8.62;76.09;102740.69;5069572;28;20024;-70
2022/04/30 05:37:04;;;;;;;14.57;6.28;;;;;;;8.94;74.58;102740.47;5072896;28;20430;-70
2022/04/30 05:39:29;;;;;;;13.13;6.55;;;;;;;8.88;74.07;102731.25;5074463;28;20024;-70
2022/04/30 05:41:54;;;;;;;12.48;5.70;;;;;;;8.67;74.44;102743.78;5092072;28;20076;-70
2022/04/30 05:44:20;;;;;;;15.77;6.28;;;;;;;8.31;75.52;102740.75;5092024;28;20154;-70
2022/04/30 05:46:45;;;;;;;14.15;5.70;;;;;;;8.02;77.43;102746.78;5091931;28;20071;-70
2022/04/30 05:49:10;;;;;;;16.77;8.40;;;;;;;7.82;77.66;102752.97;5091917;28;20051;-70
2022/04/30 05:51:36;;;;;;;13.75;6.10;;;;;;;7.74;78.19;102747.47;5091950;28;20039;-70
2022/04/30 05:54:01;;;;;;;16.98;7.25;;;;;;;7.71;78.85;102742.44;5079171;28;20052;-70
2022/04/30 05:56:27;;;;;;;14.48;6.43;;;;;;;7.68;78.84;102746.19;5072289;28;20036;-70
2022/04/30 05:58:53;;;;;;;16.00;6.25;;;;;;;7.61;78.89;102737.06;5072424;28;20068;-70
2022/04/30 06:01:18;;;;;;;12.80;5.70;;;;;;;7.62;78.84;102746.69;5072334;28;20039;-70
2022/04/30 06:03:43;;;;;;;16.05;5.93;;;;;;;7.59;78.91;102742.50;5072383;28;20494;-70
2022/04/30 06:06:09;;;;;;;15.07;6.03;;;;;;;7.54;79.60;102743.84;5090268;28;20036;-70
2022/04/30 06:08:34;;;;;;;12.65;6.20;;;;;;;7.46;79.87;102747.16;5091454;28;20113;-70
2022/04/30 06:11:01;;;;;;;13.98;6.30;;;;;;;7.41;80.04;102749.34;5080007;28;20035;-70
2022/04/30 06:13:26;;;;;;;14.77;7.30;;;;;;;7.44;80.17;102749.97;5075528;28;20028;-70
2022/04/30 06:15:52;;;;;;;13.55;6.63;;;;;;;7.43;80.08;102739.47;5071903;28;20036;-71
2022/04/30 06:18:17;;;;;;;16.63;7.28;;;;;;;7.43;80.23;102742.09;5071823;28;20021;-70
2022/04/30 06:20:43;;;;;;;12.38;6.50;;;;;;;7.45;80.56;102751.63;5091136;28;20031;-70
2022/04/30 06:23:09;;;;;;;12.82;6.13;;;;;;;7.49;80.01;102744.25;5091033;28;20127;-70
2022/04/30 06:25:35;;;;;;;16.77;7.05;;;;;;;7.49;79.73;102746.88;5091150;28;20035;-70
2022/04/30 06:28:01;;;;;;;13.40;5.93;;;;;;;7.50;79.99;102750.41;5091100;28;20024;-70
2022/04/30 06:30:27;;;;;;;13.20;5.95;;;;;;;7.46;80.48;102741.84;5088720;28;20058;-70
2022/04/30 06:32:52;;;;;;;15.57;6.10;;;;;;;7.55;80.42;102751.72;5070210;28;20028;-70
2022/04/30 06:35:18;;;;;;;16.10;7.13;;;;;;;7.51;80.60;102741.47;5089066;28;20036;-70
2022/04/30 06:37:43;;;;;;;12.35;6.43;;;;;;;7.60;79.62;102751.31;5091020;28;20024;-70
2022/04/30 06:40:09;;;;;;;14.02;5.95;;;;;;;7.67;79.92;102748.00;5086872;28;20047;-70
2022/04/30 06:42:41;;;;;;;15.00;5.45;;;;;;;7.75;79.52;102747.34;5086141;28;20029;-70
2022/04/30 06:45:11;;;;;;;14.77;6.22;;;;;;;7.84;79.36;102751.03;5089496;28;20489;-70
2022/04/30 06:47:37;;;;;;;14.63;5.72;;;;;;;7.91;79.42;102752.16;5087777;28;20020;-70
2022/04/30 06:50:04;;;;;;;15.77;6.50;;;;;;;7.95;79.16;102744.81;5083322;28;20476;-70
2022/04/30 06:52:30;;;;;;;14.65;6.22;;;;;;;8.12;78.46;102754.78;5076614;28;20207;-69
2022/04/30 06:57:42;;;;;;;14.77;7.18;;;;;;;8.24;77.13;102740.44;5077843;28;20055;-70
2022/04/30 07:02:55;;;;;;;12.57;5.45;;;;;;;8.47;76.80;102749.09;5090241;28;20094;-70
2022/04/30 07:05:20;;;;;;;15.10;5.65;;;;;;;8.60;76.97;102746.19;5088756;28;20359;-70
2022/04/30 07:07:45;;;;;;;15.48;6.07;;;;;;;8.70;76.82;102748.88;5070929;28;20029;-70
2022/04/30 07:10:11;;;;;;;11.65;5.43;;;;;;;8.80;75.85;102743.53;5086956;28;20040;-70
2022/04/30 07:12:36;;;;;;;13.63;6.40;;;;;;;8.89;75.46;102743.56;5090073;28;20031;-70
2022/04/30 07:15:02;;;;;;;12.10;5.47;;;;;;;8.89;75.52;102745.38;5090119;28;20452;-70
2022/04/30 07:17:27;;;;;;;14.88;6.47;;;;;;;8.88;75.05;102752.53;5090200;28;20039;-70
2022/04/30 07:19:52;;;;;;;15.98;5.85;;;;;;;8.94;74.74;102748.47;5090123;28;20493;-70
2022/04/30 07:22:18;;;;;;;11.05;5.93;;;;;;;9.03;74.90;102744.94;5089916;28;20051;-70
2022/04/30 07:24:43;;;;;;;17.52;6.90;;;;;;;9.15;74.93;102743.00;5089953;28;20031;-70
2022/04/30 07:27:09;;;;;;;13.35;6.72;;;;;;;9.59;72.79;102748.72;5077691;28;20040;-70
2022/04/30 07:29:37;;;;;;;13.55;5.63;;;;;;;10.23;70.50;102745.25;5072228;28;20032;-70
2022/04/30 07:32:02;;;;;;;12.50;5.30;;;;;;;11.54;66.41;102743.88;5088486;28;20028;-70
2022/04/30 07:34:28;;;;;;;13.43;5.43;;;;;;;12.75;63.63;102742.97;5075804;28;20507;-70
2022/04/30 07:36:53;;;;;;;10.20;5.65;;;;;;;13.62;59.11;102728.06;5071870;28;20044;-70
2022/04/30 07:39:19;;;;;;;9.77;5.05;;;;;;;13.28;59.32;102739.00;5086200;28;20027;-70
2022/04/30 07:41:44;;;;;;;11.63;5.07;;;;;;;12.71;59.38;102742.47;5089291;28;20677;-70
2022/04/30 07:44:10;;;;;;;11.60;5.45;;;;;;;12.36;61.69;102732.81;5089576;28;20035;-70
2022/04/30 07:46:37;;;;;;;11.50;5.47;;;;;;;12.50;60.85;102734.88;5089600;28;20119;-70
2022/04/30 07:49:03;;;;;;;9.00;4.93;;;;;;;12.28;60.78;102736.28;5078252;28;20142;-70
2022/04/30 07:51:38;;;;;;;7.90;4.35;;;;;;;12.05;61.70;102738.69;5070219;28;20067;-70
2022/04/30 07:54:04;;;;;;;12.27;5.25;;;;;;;12.06;61.90;102741.22;5070192;28;20087;-70
2022/04/30 07:56:30;;;;;;;16.08;6.65;;;;;;;12.34;60.14;102724.09;5089283;28;20028;-70
2022/04/30 07:58:55;;;;;;;10.15;5.60;;;;;;;13.05;58.81;102739.66;5089199;28;20072;-70
2022/04/30 08:01:21;;;;;;;10.23;5.05;;;;;;;14.12;55.60;102735.00;5089350;28;20092;-70
2022/04/30 08:03:47;;;;;;;17.10;6.40;;;;;;;15.21;54.88;102729.63;5080086;28;20036;-70
2022/04/30 08:06:12;;;;;;;15.63;5.43;;;;;;;17.14;50.52;102726.75;5070059;28;20429;-70
2022/04/30 08:08:38;;;;;;;14.73;5.57;;;;;;;18.81;45.02;102723.91;5069959;28;20035;-70
2022/04/30 08:11:04;;;;;;;8.82;4.53;;;;;;;19.74;41.32;102723.09;5089079;28;20032;-71
2022/04/30 08:13:30;;;;;;;6.75;4.75;;;;;;;19.07;41.50;102714.97;5089373;28;20028;-70
2022/04/30 08:15:55;;;;;;;7.38;4.50;;;;;;;18.59;42.38;102720.53;5089151;28;20494;-70
2022/04/30 08:18:20;;;;;;;9.48;5.07;;;;;;;18.40;43.53;102717.56;5089023;28;20036;-71
2022/04/30 08:20:46;;;;;;;7.10;3.97;;;;;;;18.23;43.13;102721.63;5088544;28;20030;-71
2022/04/30 08:23:12;;;;;;;7.47;4.85;;;;;;;18.51;42.26;102728.81;5069588;28;20476;-71
2022/04/30 08:25:38;;;;;;;10.55;4.80;;;;;;;18.42;42.68;102717.38;5080771;28;20056;-70
2022/04/30 08:28:04;;;;;;;8.98;4.20;;;;;;;18.64;41.80;102728.84;5088817;28;20108;-71
2022/04/30 08:30:31;;;;;;;13.20;5.57;;;;;;;17.67;43.65;102725.28;5077241;28;20404;-70
2022/04/30 08:32:56;;;;;;;8.95;4.68;;;;;;;17.01;44.36;102703.22;5070382;28;20117;-71
2022/04/30 08:35:22;;;;;;;7.30;4.22;;;;;;;16.10;47.03;102714.41;5077586;28;20117;-71
2022/04/30 08:37:47;;;;;;;9.85;5.22;;;;;;;15.12;50.05;102716.28;5084368;28;20032;-71
2022/04/30 08:40:13;;;;;;;8.48;4.07;;;;;;;14.54;51.43;102711.47;5085106;28;20221;-71
2022/04/30 08:42:38;;;;;;;6.68;4.15;;;;;;;13.94;52.33;102719.13;5088488;28;20047;-71
2022/04/30 08:45:07;;;;;;;8.10;3.78;;;;;;;13.53;54.29;102715.72;5071264;28;20403;-71
2022/04/30 08:47:38;;;;;;;12.77;5.10;;;;;;;13.24;54.71;102716.22;5088325;28;20064;-71
2022/04/30 08:50:07;;;;;;;11.37;5.27;;;;;;;13.05;55.63;102715.53;5078512;28;20025;-71
2022/04/30 08:52:32;;;;;;;13.68;5.82;;;;;;;12.84;56.52;102716.03;5088197;28;20067;-71
2022/04/30 08:54:58;;;;;;;11.02;5.40;;;;;;;12.74;56.99;102703.81;5088668;28;20119;-71
2022/04/30 08:57:24;;;;;;;9.23;4.97;;;;;;;12.83;56.75;102705.47;5084586;28;20502;-71
2022/04/30 08:59:51;;;;;;;11.65;5.63;;;;;;;13.21;57.06;102697.81;5080794;28;20032;-71
2022/04/30 09:02:16;;;;;;;14.50;5.20;;;;;;;13.42;55.49;102698.13;5088167;28;20039;-71
2022/04/30 09:04:47;;;;;;;13.07;5.25;;;;;;;13.19;56.40;102700.63;5088576;28;20040;-71
2022/04/30 09:07:21;;;;;;;8.77;4.72;;;;;;;12.84;55.63;102702.66;5075507;28;20126;-71
2022/04/30 09:09:56;;;;;;;7.88;3.90;;;;;;;12.43;57.10;102699.06;5089042;28;20476;-71
2022/04/30 09:12:21;;;;;;;10.70;4.45;;;;;;;12.07;59.53;102696.59;5092384;28;20036;-71
2022/04/30 09:14:47;;;;;;;8.25;4.00;;;;;;;11.83;60.31;102705.31;5090304;28;20352;-71
2022/04/30 09:17:14;;;;;;;11.25;4.63;;;;;;;11.69;61.21;102703.25;5089479;28;20063;-71
2022/04/30 09:19:51;;;;;;;8.80;4.82;;;;;;;11.55;61.44;102702.81;5090979;28;20032;-71
2022/04/30 09:22:27;;;;;;;10.23;4.78;;;;;;;11.50;62.00;102690.91;5080784;28;20476;-71
2022/04/30 09:24:53;;;;;;;11.88;4.32;;;;;;;11.46;62.35;102697.56;5075730;28;20121;-71
2022/04/30 09:27:18;;;;;;;9.57;5.45;;;;;;;11.47;62.64;102693.91;5072895;28;20054;-70
2022/04/30 09:29:44;;;;;;;9.35;5.80;;;;;;;11.51;63.21;102704.13;5072879;28;20025;-71
2022/04/30 09:32:17;;;;;;;9.50;4.97;;;;;;;11.55;61.97;102696.63;5076994;28;20481;-71
2022/04/30 09:37:45;;;;;;;14.35;5.22;;;;;;;11.74;61.45;102692.91;5072943;28;20549;-71
2022/04/30 09:40:13;;;;;;;10.50;4.72;;;;;;;11.91;60.44;102689.34;5073454;28;20074;-71
2022/04/30 09:42:43;;;;;;;6.55;4.38;;;;;;;12.08;60.47;102682.22;5072726;28;20071;-71
2022/04/30 09:45:20;;;;;;;10.43;5.50;;;;;;;12.15;60.05;102685.91;5087646;28;20032;-71
2022/04/30 09:47:46;;;;;;;16.30;6.47;;;;;;;12.23;59.52;102666.38;5091762;28;20429;-71
2022/04/30 09:55:43;;;;;;;8.70;5.03;;;;;;;11.96;57.24;102675.50;5090483;28;20051;-71
2022/04/30 09:58:15;;;;;;;12.60;5.07;;;;;;;11.93;57.87;102676.66;5091236;28;20042;-71
2022/04/30 10:00:41;;;;;;;8.18;4.95;;;;;;;12.03;58.14;102673.84;5090872;28;20057;-71
2022/04/30 10:03:08;;;;;;;9.57;4.20;;;;;;;12.18;58.07;102664.22;5091005;28;20021;-71
2022/04/30 10:05:36;;;;;;;10.90;5.13;;;;;;;12.19;56.24;102663.19;5088713;28;20071;-71
2022/04/30 10:08:02;;;;;;;10.35;4.28;;;;;;;12.13;55.64;102668.34;5089277;28;20020;-71
2022/04/30 10:10:38;;;;;;;10.73;5.57;;;;;;;12.07;56.27;102659.97;5090968;28;20112;-71
2022/04/30 10:13:17;;;;;;;8.57;5.18;;;;;;;12.09;56.58;102665.19;5084683;28;20029;-71
2022/04/30 10:15:56;;;;;;;8.10;4.47;;;;;;;12.09;57.30;102659.81;5091189;28;20028;-71
2022/04/30 10:18:32;;;;;;;8.35;3.88;;;;;;;12.26;56.81;102658.03;5088919;28;20483;-71
2022/04/30 10:21:00;;;;;;;8.20;4.55;;;;;;;12.42;55.87;102652.72;5082444;28;20502;-70
2022/04/30 10:23:26;;;;;;;9.40;5.45;;;;;;;12.52;56.74;102652.56;5087028;28;20464;-71
2022/04/30 10:25:53;;;;;;;7.95;4.72;;;;;;;12.63;56.59;102652.25;5088714;28;20056;-70
2022/04/30 10:28:23;;;;;;;7.32;4.10;;;;;;;12.70;54.62;102637.19;5076117;28;20040;-72
2022/04/30 10:31:05;;;;;;;6.15;4.07;;;;;;;12.70;54.72;102647.88;5064382;28;20029;-73
2022/04/30 10:33:32;;;;;;;8.27;4.55;;;;;;;12.69;53.61;102643.56;5075340;28;20056;-70
2022/04/30 10:36:06;;;;;;;9.60;5.43;;;;;;;12.60;54.45;102638.34;5074174;28;20031;-77
2022/04/30 10:38:32;;;;;;;8.95;4.20;;;;;;;12.65;52.51;102636.00;5070251;28;20085;-72
2022/04/30 10:40:59;;;;;;;11.48;5.05;;;;;;;12.86;52.89;102635.50;5078845;28;20033;-72
2022/04/30 10:43:32;;;;;;;7.57;4.40;;;;;;;13.10;52.45;102635.50;5087607;28;20055;-72
2022/04/30 10:45:58;;;;;;;12.18;4.72;;;;;;;13.21;50.56;102634.31;5084533;28;20023;-72
2022/04/30 10:48:24;;;;;;;11.18;4.90;;;;;;;13.30;53.07;102627.13;5089193;28;20467;-72
2022/04/30 10:51:03;;;;;;;7.57;4.07;;;;;;;13.52;51.21;102629.09;5090148;28;20088;-72
2022/04/30 10:53:29;;;;;;;5.00;3.75;;;;;;;13.67;49.37;102625.69;5088631;28;20121;-72
2022/04/30 10:55:54;;;;;;;7.00;4.13;;;;;;;13.64;49.14;102618.81;5089042;28;20028;-72
2022/04/30 10:58:24;;;;;;;5.28;2.95;;;;;;;13.47;49.31;102620.72;5089009;28;20036;-72
2022/04/30 11:00:49;;;;;;;6.80;3.00;;;;;;;13.31;48.29;102612.75;5072262;28;20024;-72
2022/04/30 11:03:15;;;;;;;5.32;3.83;;;;;;;13.30;48.51;102619.09;5071438;28;20032;-72
2022/04/30 11:05:42;;;;;;;23.08;4.75;;;;;;;13.28;48.89;102607.69;5074092;28;20474;-72
2022/04/30 11:08:07;;;;;;;5.53;3.10;;;;;;;13.30;50.52;102606.53;5079499;28;20073;-71
2022/04/30 11:10:33;;;;;;;6.82;3.15;;;;;;;13.29;50.19;102602.19;5089896;28;20055;-73
2022/04/30 11:13:06;;;;;;;7.40;3.55;;;;;;;13.61;51.17;102602.25;5075096;28;20030;-71
2022/04/30 11:15:32;;;;;;;6.00;3.45;;;;;;;13.98;49.55;102598.88;5086034;28;20111;-72
2022/04/30 11:17:58;;;;;;;8.85;4.10;;;;;;;14.31;47.88;102582.59;5088243;28;20142;-72
2022/04/30 11:20:26;;;;;;;6.30;4.30;;;;;;;14.49;45.69;102588.50;5088717;28;20031;-73
2022/04/30 11:22:56;;;;;;;6.70;3.50;;;;;;;14.51;47.32;102582.94;5089870;28;20143;-72
2022/04/30 11:25:22;;;;;;;11.23;4.40;;;;;;;14.67;45.93;102585.50;5073318;28;20104;-72
2022/04/30 11:27:47;;;;;;;10.25;4.70;;;;;;;14.83;45.83;102582.69;5070612;28;20028;-72
2022/04/30 11:30:13;;;;;;;6.90;3.67;;;;;;;14.69;46.04;102581.63;5070630;28;20544;-72
2022/04/30 11:32:38;;;;;;;7.40;4.22;;;;;;;14.39;44.94;102572.63;5081168;28;20025;-72
2022/04/30 11:35:04;;;;;;;7.63;3.83;;;;;;;14.44;45.06;102578.28;5082337;28;20356;-72
2022/04/30 11:37:40;;;;;;;7.88;3.65;;;;;;;14.71;46.14;102572.56;5075111;28;20032;-72
2022/04/30 11:40:06;;;;;;;7.55;4.13;;;;;;;14.88;46.20;102571.38;5076666;28;20104;-72
2022/04/30 11:42:32;;;;;;;7.22;3.95;;;;;;;15.04;44.31;102570.41;5081094;28;20037;-72
2022/04/30 11:44:57;;;;;;;9.00;5.07;;;;;;;15.16;43.79;102562.69;5084724;28;20044;-72
2022/04/30 11:47:24;;;;;;;8.23;4.00;;;;;;;15.06;43.58;102562.97;5089531;28;20495;-72
2022/04/30 11:50:01;;;;;;;9.85;4.38;;;;;;;14.79;44.22;102561.75;5077249;28;20739;-72
2022/04/30 11:52:27;;;;;;;7.45;4.05;;;;;;;14.68;45.41;102555.78;5089003;28;20028;-73
2022/04/30 11:54:52;;;;;;;7.90;4.40;;;;;;;14.47;45.41;102561.81;5089122;28;20028;-72
2022/04/30 11:57:18;;;;;;;7.30;3.67;;;;;;;14.15;44.46;102538.75;5084485;28;20046;-72
2022/04/30 11:59:43;;;;;;;7.25;3.97;;;;;;;14.09;45.51;102555.53;5087868;28;20053;-73
2022/04/30 12:02:11;;;;;;;14.55;4.57;;;;;;;14.06;44.88;102558.59;5089178;28;20032;-72